createdAt,value
2018-02-03T00:00:02.071Z,8.40
2018-02-03T00:01:06.684Z,11.20
2018-02-03T00:02:10.893Z,8.27
2018-02-03T00:03:15.909Z,21.23
2018-02-03T00:04:20.838Z,12.87
2018-02-03T00:05:25.793Z,17.37
2018-02-03T00:06:30.414Z,17.93
2018-02-03T00:07:34.823Z,12.93
2018-02-03T00:08:39.202Z,14.30
2018-02-03T00:09:44.218Z,10.93
2018-02-03T00:10:48.425Z,6.45
2018-02-03T00:11:52.607Z,11.03
2018-02-03T00:12:56.886Z,12.65
2018-02-03T00:14:01.154Z,7.85
2018-02-03T00:15:05.792Z,20.02
2018-02-03T00:16:10.109Z,8.07
2018-02-03T00:17:14.317Z,11.87
2018-02-03T00:18:18.523Z,12.83
2018-02-03T00:19:23.539Z,15.70
2018-02-03T00:20:27.763Z,10.63
2018-02-03T00:21:32.230Z,12.03
2018-02-03T00:22:36.552Z,10.73
2018-02-03T00:23:40.825Z,13.70
2018-02-03T00:24:45.912Z,14.10
2018-02-03T00:25:50.104Z,14.40
2018-02-03T00:26:54.286Z,8.87
2018-02-03T00:27:59.399Z,14.10
2018-02-03T00:29:04.652Z,12.90
2018-02-03T00:30:10.083Z,6.90
2018-02-03T00:31:14.272Z,7.50
2018-02-03T00:32:18.455Z,13.03
2018-02-03T00:33:22.619Z,13.33
2018-02-03T00:34:27.550Z,18.08
2018-02-03T00:35:31.841Z,10.13
2018-02-03T00:36:36.736Z,20.30
2018-02-03T00:37:41.436Z,11.47
2018-02-03T00:38:45.644Z,14.03
2018-02-03T00:39:49.876Z,12.80
2018-02-03T00:40:54.074Z,14.35
2018-02-03T00:41:58.294Z,15.30
2018-02-03T00:43:03.283Z,11.20
2018-02-03T00:44:07.584Z,8.20
2018-02-03T00:45:12.147Z,15.77
2018-02-03T00:46:16.343Z,10.93
2018-02-03T00:47:20.555Z,18.17
2018-02-03T00:48:24.752Z,19.00
2018-02-03T00:49:28.956Z,12.20
2018-02-03T00:50:34.415Z,12.85
2018-02-03T00:51:38.664Z,8.83
2018-02-03T00:52:42.927Z,21.23
2018-02-03T00:53:47.879Z,7.93
2018-02-03T00:54:52.103Z,15.43
2018-02-03T00:55:56.278Z,14.13
2018-02-03T00:57:00.606Z,19.08
2018-02-03T00:58:05.324Z,21.00
2018-02-03T00:59:09.572Z,15.32
2018-02-03T01:00:14.172Z,15.40
2018-02-03T01:01:18.347Z,11.40
2018-02-03T01:02:23.288Z,18.67
2018-02-03T01:03:27.468Z,16.27
2018-02-03T01:04:32.541Z,11.00
2018-02-03T01:05:36.879Z,11.43
2018-02-03T01:06:41.554Z,12.77
2018-02-03T01:07:45.766Z,15.48
2018-02-03T01:08:49.943Z,15.25
2018-02-03T01:09:54.120Z,18.92
2018-02-03T01:10:58.376Z,12.57
2018-02-03T01:12:02.954Z,14.50
2018-02-03T01:13:07.388Z,12.90
2018-02-03T01:14:11.638Z,15.85
2018-02-03T01:15:15.860Z,10.32
2018-02-03T01:16:20.099Z,17.58
2018-02-03T01:17:24.295Z,21.60
2018-02-03T01:18:28.546Z,16.70
2018-02-03T01:19:33.700Z,23.40
2018-02-03T01:20:38.039Z,14.10
2018-02-03T01:21:42.363Z,23.00
2018-02-03T01:22:46.551Z,11.60
2018-02-03T01:23:51.505Z,14.90
2018-02-03T01:24:55.678Z,14.63
2018-02-03T01:26:00.675Z,16.43
2018-02-03T01:27:05.771Z,17.55
2018-02-03T01:28:10.070Z,9.82
2018-02-03T01:29:14.316Z,8.55
2018-02-03T01:30:18.506Z,11.75
2018-02-03T01:31:22.735Z,10.30
2018-02-03T01:32:26.974Z,19.10
2018-02-03T01:33:31.852Z,11.80
2018-02-03T01:34:36.373Z,19.42
2018-02-03T01:35:40.610Z,10.65
2018-02-03T01:36:44.944Z,12.50
2018-02-03T01:37:49.219Z,12.70
2018-02-03T01:38:53.478Z,18.10
2018-02-03T01:39:57.656Z,9.70
2018-02-03T01:41:02.046Z,14.80
2018-02-03T01:42:06.674Z,10.23
2018-02-03T01:43:11.488Z,12.67
2018-02-03T01:44:16.660Z,16.98
2018-02-03T01:45:20.876Z,12.23
2018-02-03T01:46:25.048Z,13.52
2018-02-03T01:47:47.141Z,13.40
2018-02-03T01:48:51.311Z,12.15
2018-02-03T01:49:55.840Z,9.70
2018-02-03T01:51:00.317Z,14.60
2018-02-03T01:52:04.988Z,10.63
2018-02-03T01:53:09.427Z,14.47
2018-02-03T01:54:13.657Z,16.10
2018-02-03T01:55:17.874Z,8.95
2018-02-03T01:56:22.191Z,16.08
2018-02-03T01:57:26.400Z,12.77
2018-02-03T01:58:31.327Z,10.57
2018-02-03T01:59:35.685Z,16.60
2018-02-03T02:00:40.419Z,19.93
2018-02-03T02:01:44.653Z,9.95
2018-02-03T02:02:49.627Z,17.55
2018-02-03T02:03:53.846Z,13.73
2018-02-03T02:04:58.034Z,10.47
2018-02-03T02:06:02.570Z,8.07
2018-02-03T02:07:07.633Z,15.23
2018-02-03T02:08:13.204Z,20.05
2018-02-03T02:09:17.407Z,12.13
2018-02-03T02:10:22.389Z,17.12
2018-02-03T02:11:26.579Z,7.40
2018-02-03T02:12:30.973Z,11.37
2018-02-03T02:13:35.550Z,9.20
2018-02-03T02:14:40.122Z,21.00
2018-02-03T02:15:44.419Z,12.60
2018-02-03T02:16:49.370Z,27.43
2018-02-03T02:17:53.599Z,14.10
2018-02-03T02:18:57.783Z,11.05
2018-02-03T02:20:02.521Z,18.15
2018-02-03T02:21:07.336Z,7.05
2018-02-03T02:22:12.007Z,11.40
2018-02-03T02:23:16.223Z,9.77
2018-02-03T02:24:20.410Z,8.45
2018-02-03T02:25:24.687Z,10.18
2018-02-03T02:26:28.880Z,11.93
2018-02-03T02:27:33.947Z,14.70
2018-02-03T02:28:38.204Z,12.17
2018-02-03T02:29:42.477Z,16.50
2018-02-03T02:30:46.767Z,13.68
2018-02-03T02:31:50.968Z,12.43
2018-02-03T02:32:55.162Z,8.90
2018-02-03T02:34:00.253Z,11.93
2018-02-03T02:35:05.446Z,7.65
2018-02-03T02:36:09.728Z,24.45
2018-02-03T02:37:13.978Z,19.12
2018-02-03T02:38:18.208Z,9.75
2018-02-03T02:39:22.402Z,10.18
2018-02-03T02:40:26.595Z,23.65
2018-02-03T02:41:31.196Z,14.87
2018-02-03T02:42:35.492Z,11.87
2018-02-03T02:43:40.548Z,9.18
2018-02-03T02:44:44.765Z,9.40
2018-02-03T02:45:49.761Z,14.50
2018-02-03T02:46:53.948Z,12.98
2018-02-03T02:47:58.163Z,20.10
2018-02-03T02:49:03.658Z,9.10
2018-02-03T02:50:08.059Z,15.98
2018-02-03T02:51:13.130Z,10.85
2018-02-03T02:52:17.403Z,13.68
2018-02-03T02:53:22.371Z,16.85
2018-02-03T02:54:26.661Z,13.50
2018-02-03T02:55:32.092Z,13.13
2018-02-03T02:56:36.619Z,10.73
2018-02-03T02:57:41.307Z,17.27
2018-02-03T02:58:46.307Z,12.20
2018-02-03T02:59:50.507Z,19.43
2018-02-03T03:00:55.434Z,13.18
2018-02-03T03:01:59.658Z,8.85
2018-02-03T03:03:05.683Z,12.48
2018-02-03T03:04:10.363Z,16.40
2018-02-03T03:05:15.748Z,11.48
2018-02-03T03:06:19.937Z,11.43
2018-02-03T03:07:25.004Z,10.88
2018-02-03T03:08:29.201Z,12.37
2018-02-03T03:09:34.108Z,23.40
2018-02-03T03:10:38.466Z,15.75
2018-02-03T03:11:42.732Z,13.98
2018-02-03T03:12:46.962Z,14.37
2018-02-03T03:13:51.180Z,9.90
2018-02-03T03:14:55.350Z,12.13
2018-02-03T03:16:00.616Z,19.12
2018-02-03T03:17:04.976Z,16.70
2018-02-03T03:18:09.315Z,14.35
2018-02-03T03:19:14.367Z,8.38
2018-02-03T03:20:18.912Z,13.07
2018-02-03T03:21:23.140Z,15.52
2018-02-03T03:22:27.320Z,9.38
2018-02-03T03:23:31.647Z,7.85
2018-02-03T03:24:36.320Z,15.00
2018-02-03T03:25:41.058Z,10.40
2018-02-03T03:26:45.239Z,7.43
2018-02-03T03:27:49.407Z,11.10
2018-02-03T03:28:53.574Z,15.02
2018-02-03T03:29:58.534Z,14.33
2018-02-03T03:31:03.265Z,13.67
2018-02-03T03:32:07.679Z,13.80
2018-02-03T03:33:12.845Z,21.13
2018-02-03T03:34:17.034Z,18.70
2018-02-03T03:35:21.232Z,13.70
2018-02-03T03:36:25.435Z,13.90
2018-02-03T03:37:29.635Z,17.40
2018-02-03T03:38:35.380Z,10.90
2018-02-03T03:39:40.148Z,9.47
2018-02-03T03:40:44.703Z,18.40
2018-02-03T03:41:49.652Z,22.40
2018-02-03T03:42:53.847Z,25.50
2018-02-03T03:43:58.790Z,11.48
2018-02-03T03:45:03.749Z,15.77
2018-02-03T03:46:08.180Z,11.82
2018-02-03T03:47:13.807Z,15.38
2018-02-03T03:48:17.993Z,10.23
2018-02-03T03:49:22.186Z,15.90
2018-02-03T03:50:26.382Z,14.68
2018-02-03T03:51:31.054Z,17.10
2018-02-03T03:52:35.669Z,19.70
2018-02-03T03:53:40.187Z,17.08
2018-02-03T03:54:44.447Z,14.13
2018-02-03T03:55:48.632Z,16.52
2018-02-03T03:56:53.050Z,26.20
2018-02-03T03:57:57.333Z,15.20
2018-02-03T03:59:02.304Z,10.57
2018-02-03T04:00:06.696Z,15.43
2018-02-03T04:01:10.982Z,19.80
2018-02-03T04:02:15.607Z,15.77
2018-02-03T04:03:19.832Z,26.55
2018-02-03T04:04:24.124Z,21.17
2018-02-03T04:05:28.340Z,18.02
2018-02-03T04:06:32.789Z,20.13
2018-02-03T04:07:37.277Z,23.67
2018-02-03T04:08:41.553Z,16.15
2018-02-03T04:09:45.787Z,24.50
2018-02-03T04:10:49.978Z,15.88
2018-02-03T04:11:54.175Z,18.42
2018-02-03T04:12:59.227Z,12.45
2018-02-03T04:14:03.641Z,11.55
2018-02-03T04:15:07.916Z,15.77
2018-02-03T04:16:13.037Z,14.50
2018-02-03T04:17:17.230Z,18.15
2018-02-03T04:18:21.485Z,17.95
2018-02-03T04:19:25.656Z,9.80
2018-02-03T04:20:29.828Z,20.07
2018-02-03T04:21:34.088Z,12.07
2018-02-03T04:22:38.417Z,16.77
2018-02-03T04:23:42.996Z,12.75
2018-02-03T04:24:47.214Z,15.48
2018-02-03T04:25:51.420Z,15.23
2018-02-03T04:26:55.598Z,13.30
2018-02-03T04:28:00.832Z,18.10
2018-02-03T04:29:05.858Z,22.50
2018-02-03T04:30:10.973Z,18.60
2018-02-03T04:31:15.948Z,20.17
2018-02-03T04:32:20.176Z,18.42
2018-02-03T04:33:24.383Z,26.10
2018-02-03T04:34:28.669Z,16.55
2018-02-03T04:35:33.695Z,14.27
2018-02-03T04:36:37.930Z,13.83
2018-02-03T04:37:42.731Z,17.57
2018-02-03T04:38:46.941Z,13.10
2018-02-03T04:39:51.224Z,16.83
2018-02-03T04:40:56.200Z,20.90
2018-02-03T04:42:00.393Z,10.20
2018-02-03T04:43:05.572Z,12.68
2018-02-03T04:44:09.834Z,16.27
2018-02-03T04:45:14.961Z,12.95
2018-02-03T04:46:19.951Z,20.23
2018-02-03T04:47:24.150Z,13.70
2018-02-03T04:48:28.370Z,17.02
2018-02-03T04:49:33.192Z,10.80
2018-02-03T04:50:38.299Z,15.20
2018-02-03T04:51:42.508Z,14.50
2018-02-03T04:52:46.702Z,10.57
2018-02-03T04:53:50.908Z,12.15
2018-02-03T04:54:55.105Z,7.20
2018-02-03T04:56:01.309Z,11.20
2018-02-03T04:57:06.100Z,20.57
2018-02-03T04:58:10.613Z,13.82
2018-02-03T04:59:14.815Z,15.40
2018-02-03T05:00:19.803Z,13.52
2018-02-03T05:01:24.387Z,19.50
2018-02-03T05:02:28.648Z,11.95
2018-02-03T05:03:33.145Z,13.73
2018-02-03T05:04:37.418Z,20.15
2018-02-03T05:05:42.098Z,11.70
2018-02-03T05:06:46.382Z,16.80
2018-02-03T05:07:50.636Z,27.17
2018-02-03T05:08:54.836Z,15.80
2018-02-03T05:09:59.068Z,18.47
2018-02-03T05:11:03.933Z,25.67
2018-02-03T05:12:08.298Z,21.27
2018-02-03T05:13:13.451Z,15.10
2018-02-03T05:14:17.651Z,13.38
2018-02-03T05:15:22.643Z,18.95
2018-02-03T05:16:26.941Z,15.18
2018-02-03T05:17:32.765Z,12.55
2018-02-03T05:18:37.270Z,18.57
2018-02-03T05:19:41.676Z,10.80
2018-02-03T05:20:46.622Z,14.82
2018-02-03T05:21:50.820Z,14.00
2018-02-03T05:22:55.888Z,10.38
2018-02-03T05:24:00.061Z,16.92
2018-02-03T05:25:05.514Z,20.35
2018-02-03T05:26:09.962Z,13.10
2018-02-03T05:27:14.990Z,9.43
2018-02-03T05:28:19.286Z,17.67
2018-02-03T05:29:23.492Z,19.75
2018-02-03T05:30:27.667Z,11.40
2018-02-03T05:31:33.985Z,13.90
2018-02-03T05:32:39.684Z,12.82
2018-02-03T05:33:44.110Z,8.88
2018-02-03T05:34:48.293Z,14.48
2018-02-03T05:35:53.240Z,16.08
2018-02-03T05:36:58.207Z,16.17
2018-02-03T05:38:02.997Z,18.77
2018-02-03T05:39:08.447Z,13.70
2018-02-03T05:40:12.724Z,13.65
2018-02-03T05:41:16.955Z,7.55
2018-02-03T05:42:21.941Z,12.93
2018-02-03T05:43:26.167Z,10.70
2018-02-03T05:44:32.199Z,16.40
2018-02-03T05:45:36.823Z,11.55
2018-02-03T05:46:41.117Z,19.35
2018-02-03T05:47:45.502Z,13.15
2018-02-03T05:48:49.721Z,12.15
2018-02-03T05:49:53.929Z,12.40
2018-02-03T05:50:58.144Z,16.65
2018-02-03T05:52:02.598Z,15.07
2018-02-03T05:53:07.195Z,15.80
2018-02-03T05:54:11.552Z,9.77
2018-02-03T05:55:15.731Z,11.70
2018-02-03T05:56:19.927Z,6.35
2018-02-03T05:57:24.132Z,13.00
2018-02-03T05:58:28.366Z,11.43
2018-02-03T05:59:32.839Z,11.27
2018-02-03T06:00:37.327Z,13.20
2018-02-03T06:01:42.377Z,22.45
2018-02-03T06:02:47.346Z,12.70
2018-02-03T06:03:51.546Z,17.42
2018-02-03T06:04:55.737Z,17.23
2018-02-03T06:05:59.989Z,9.10
2018-02-03T06:07:04.944Z,9.57
2018-02-03T06:08:10.010Z,10.57
2018-02-03T06:09:14.241Z,13.02
2018-02-03T06:10:18.448Z,16.27
2018-02-03T06:11:23.056Z,15.52
2018-02-03T06:12:27.294Z,12.93
2018-02-03T06:13:31.818Z,15.32
2018-02-03T06:14:36.360Z,13.38
2018-02-03T06:15:41.023Z,13.30
2018-02-03T06:16:46.240Z,12.10
2018-02-03T06:17:51.193Z,16.12
2018-02-03T06:18:55.414Z,14.85
2018-02-03T06:19:59.598Z,16.87
2018-02-03T06:21:05.256Z,18.43
2018-02-03T06:22:10.180Z,10.93
2018-02-03T06:23:14.498Z,12.23
2018-02-03T06:24:18.688Z,14.53
2018-02-03T06:25:23.655Z,13.13
2018-02-03T06:26:27.878Z,16.77
2018-02-03T06:27:32.550Z,11.23
2018-02-03T06:28:37.340Z,10.07
2018-02-03T06:29:41.800Z,11.27
2018-02-03T06:30:45.995Z,12.65
2018-02-03T06:31:50.972Z,15.15
2018-02-03T06:32:55.190Z,16.90
2018-02-03T06:33:59.388Z,15.47
2018-02-03T06:35:03.825Z,20.42
2018-02-03T06:36:09.180Z,15.43
2018-02-03T06:37:13.917Z,12.23
2018-02-03T06:38:18.936Z,15.15
2018-02-03T06:39:23.128Z,8.98
2018-02-03T06:40:27.303Z,14.77
2018-02-03T06:41:31.710Z,8.63
2018-02-03T06:42:36.418Z,12.55
2018-02-03T06:43:41.518Z,13.23
2018-02-03T06:44:45.734Z,12.37
2018-02-03T06:45:49.958Z,18.52
2018-02-03T06:46:54.909Z,10.85
2018-02-03T06:47:59.110Z,14.87
2018-02-03T06:49:04.387Z,13.88
2018-02-03T06:50:08.631Z,14.95
2018-02-03T06:51:12.854Z,20.12
2018-02-03T06:52:17.814Z,11.55
2018-02-03T06:53:21.994Z,16.00
2018-02-03T06:54:26.936Z,16.00
2018-02-03T06:55:31.342Z,13.90
2018-02-03T06:56:35.611Z,17.95
2018-02-03T06:57:39.901Z,14.55
2018-02-03T06:58:44.111Z,16.87
2018-02-03T06:59:48.324Z,21.23
2018-02-03T07:00:52.732Z,15.57
2018-02-03T07:01:57.019Z,18.50
2018-02-03T07:03:02.073Z,21.67
2018-02-03T07:04:06.470Z,18.45
2018-02-03T07:05:10.698Z,15.63
2018-02-03T07:06:14.864Z,22.58
2018-02-03T07:07:19.116Z,24.00
2018-02-03T07:08:23.310Z,19.95
2018-02-03T07:09:28.285Z,19.73
2018-02-03T07:10:33.530Z,21.75
2018-02-03T07:11:38.023Z,21.73
2018-02-03T07:12:42.630Z,22.58
2018-02-03T07:13:46.828Z,15.75
2018-02-03T07:14:51.823Z,25.60
2018-02-03T07:15:56.031Z,19.05
2018-02-03T07:17:02.684Z,27.87
2018-02-03T07:18:06.942Z,22.58
2018-02-03T07:19:12.204Z,23.85
2018-02-03T07:20:16.475Z,24.98
2018-02-03T07:21:20.688Z,35.97
2018-02-03T07:22:25.300Z,23.15
2018-02-03T07:23:29.502Z,25.83
2018-02-03T07:24:33.898Z,23.27
2018-02-03T07:25:38.141Z,26.37
2018-02-03T07:26:42.595Z,22.27
2018-02-03T07:27:47.624Z,30.02
2018-02-03T07:28:52.603Z,21.42
2018-02-03T07:29:56.830Z,20.08
2018-02-03T07:31:01.207Z,22.48
2018-02-03T07:32:05.753Z,24.30
2018-02-03T07:33:10.424Z,29.70
2018-02-03T07:34:14.624Z,24.20
2018-02-03T07:35:18.834Z,23.87
2018-02-03T07:36:23.805Z,27.42
2018-02-03T07:37:27.977Z,29.27
2018-02-03T07:38:33.866Z,23.62
2018-02-03T07:39:38.215Z,22.50
2018-02-03T07:40:43.286Z,22.80
2018-02-03T07:41:47.597Z,24.35
2018-02-03T07:42:53.358Z,19.80
2018-02-03T07:43:58.000Z,20.37
2018-02-03T07:45:02.297Z,23.52
2018-02-03T07:46:06.684Z,21.50
2018-02-03T07:47:11.759Z,13.70
2018-02-03T07:48:15.999Z,19.45
2018-02-03T07:49:20.232Z,34.53
2018-02-03T07:50:25.191Z,16.33
2018-02-03T07:51:29.372Z,19.58
2018-02-03T07:52:34.488Z,20.15
2018-02-03T07:53:39.982Z,25.35
2018-02-03T07:54:44.200Z,22.10
2018-02-03T07:55:48.390Z,41.90
2018-02-03T07:56:52.612Z,14.30
2018-02-03T07:57:56.819Z,14.85
2018-02-03T07:59:01.640Z,24.87
2018-02-03T08:00:05.894Z,28.75
2018-02-03T08:01:10.170Z,17.20
2018-02-03T08:02:14.404Z,21.52
2018-02-03T08:03:18.609Z,24.87
2018-02-03T08:04:22.841Z,14.00
2018-02-03T08:05:27.051Z,22.52
2018-02-03T08:06:31.380Z,19.25
2018-02-03T08:07:35.849Z,19.60
2018-02-03T08:08:40.074Z,20.87
2018-02-03T08:09:44.325Z,19.85
2018-02-03T08:10:48.504Z,24.58
2018-02-03T08:11:52.714Z,16.40
2018-02-03T08:12:56.900Z,30.75
2018-02-03T08:14:01.125Z,33.85
2018-02-03T08:15:05.343Z,31.35
2018-02-03T08:16:09.688Z,26.52
2018-02-03T08:17:15.407Z,19.40
2018-02-03T08:18:19.614Z,18.13
2018-02-03T08:19:24.236Z,27.95
2018-02-03T08:20:28.471Z,23.98
2018-02-03T08:21:32.711Z,20.50
2018-02-03T08:22:37.437Z,23.90
2018-02-03T08:23:41.648Z,24.10
2018-02-03T08:24:46.668Z,18.67
2018-02-03T08:25:51.632Z,23.08
2018-02-03T08:26:56.014Z,25.77
2018-02-03T08:28:01.011Z,19.00
2018-02-03T08:29:06.506Z,21.40
2018-02-03T08:30:10.746Z,17.93
2018-02-03T08:31:14.971Z,25.20
2018-02-03T08:32:19.165Z,24.25
2018-02-03T08:33:23.352Z,20.48
2018-02-03T08:34:27.551Z,18.80
2018-02-03T08:35:32.268Z,20.42
2018-02-03T08:36:36.655Z,21.77
2018-02-03T08:37:40.940Z,26.08
2018-02-03T08:38:45.188Z,31.08
2018-02-03T08:39:50.558Z,23.95
2018-02-03T08:40:54.731Z,29.50
2018-02-03T08:41:58.954Z,25.10
2018-02-03T08:43:04.305Z,26.48
2018-02-03T08:44:08.700Z,21.37
2018-02-03T08:45:13.968Z,21.80
2018-02-03T08:46:18.157Z,17.58
2018-02-03T08:47:23.160Z,19.30
2018-02-03T08:48:27.364Z,18.87
2018-02-03T08:49:31.577Z,21.10
2018-02-03T08:50:35.900Z,17.85
2018-02-03T08:51:40.263Z,30.67
2018-02-03T08:52:44.517Z,17.97
2018-02-03T08:53:49.480Z,19.90
2018-02-03T08:54:53.724Z,21.67
2018-02-03T08:55:57.924Z,21.37
2018-02-03T08:57:02.391Z,19.10
2018-02-03T08:58:06.663Z,21.90
2018-02-03T08:59:10.858Z,21.80
2018-02-03T09:00:15.060Z,20.90
2018-02-03T09:01:19.263Z,20.37
2018-02-03T09:02:24.211Z,28.77
2018-02-03T09:03:28.486Z,17.48
2018-02-03T09:04:32.721Z,21.45
2018-02-03T09:05:36.916Z,20.75
2018-02-03T09:06:42.061Z,14.95
2018-02-03T09:07:46.363Z,17.83
2018-02-03T09:08:50.594Z,19.08
2018-02-03T09:09:54.804Z,22.37
2018-02-03T09:10:59.021Z,19.55
2018-02-03T09:12:06.899Z,30.40
2018-02-03T09:13:11.118Z,23.30
2018-02-03T09:14:15.432Z,23.55
2018-02-03T09:15:21.230Z,31.47
2018-02-03T09:16:25.432Z,24.73
2018-02-03T09:17:29.651Z,18.83
2018-02-03T09:18:33.842Z,17.30
2018-02-03T09:19:38.083Z,35.85
2018-02-03T09:20:42.659Z,27.87
2018-02-03T09:21:47.065Z,29.30
2018-02-03T09:22:51.964Z,31.30
2018-02-03T09:23:56.201Z,24.63
2018-02-03T09:25:00.824Z,24.35
2018-02-03T09:26:05.023Z,25.50
2018-02-03T09:27:09.199Z,19.73
2018-02-03T09:28:13.495Z,25.20
2018-02-03T09:29:18.521Z,26.52
2018-02-03T09:30:22.797Z,19.25
2018-02-03T09:31:27.007Z,28.98
2018-02-03T09:32:31.211Z,29.40
2018-02-03T09:33:35.409Z,22.57
2018-02-03T09:34:39.580Z,25.17
2018-02-03T09:35:43.885Z,21.80
2018-02-03T09:36:48.237Z,27.45
2018-02-03T09:37:52.628Z,20.62
2018-02-03T09:38:56.875Z,29.53
2018-02-03T09:40:01.086Z,26.33
2018-02-03T09:41:05.611Z,32.03
2018-02-03T09:42:09.840Z,23.65
2018-02-03T09:43:14.668Z,27.52
2018-02-03T09:44:19.144Z,25.60
2018-02-03T09:45:24.247Z,27.00
2018-02-03T09:46:28.517Z,20.25
2018-02-03T09:47:32.712Z,27.17
2018-02-03T09:48:36.975Z,26.90
2018-02-03T09:49:41.188Z,26.13
2018-02-03T09:50:46.769Z,26.80
2018-02-03T09:51:51.099Z,20.33
2018-02-03T09:52:55.371Z,25.73
2018-02-03T09:53:59.578Z,22.30
2018-02-03T09:55:03.775Z,23.73
2018-02-03T09:56:07.985Z,27.73
2018-02-03T09:57:12.610Z,24.93
2018-02-03T09:58:17.727Z,22.70
2018-02-03T09:59:22.509Z,25.60
2018-02-03T10:00:27.786Z,20.40
2018-02-03T10:01:32.010Z,31.02
2018-02-03T10:02:36.259Z,19.70
2018-02-03T10:03:40.491Z,26.73
2018-02-03T10:04:46.135Z,27.75
2018-02-03T10:05:50.861Z,32.00
2018-02-03T10:06:55.120Z,23.90
2018-02-03T10:07:59.373Z,23.80
2018-02-03T10:09:03.595Z,28.50
2018-02-03T10:10:07.793Z,24.80
2018-02-03T10:11:12.721Z,30.27
2018-02-03T10:12:17.074Z,24.10
2018-02-03T10:13:21.287Z,29.03
2018-02-03T10:14:25.463Z,26.70
2018-02-03T10:15:29.670Z,24.43
2018-02-03T10:16:33.891Z,25.50
2018-02-03T10:17:38.140Z,27.83
2018-02-03T10:18:42.506Z,22.77
2018-02-03T10:19:46.760Z,24.80
2018-02-03T10:20:51.024Z,23.17
2018-02-03T10:21:55.339Z,24.17
2018-02-03T10:22:59.565Z,26.83
2018-02-03T10:24:03.869Z,26.83
2018-02-03T10:25:08.056Z,27.73
2018-02-03T10:26:13.249Z,23.37
2018-02-03T10:27:17.994Z,19.87
2018-02-03T10:28:22.257Z,28.70
2018-02-03T10:29:26.565Z,38.70
2018-02-03T10:30:30.775Z,25.75
2018-02-03T10:31:35.028Z,24.80
2018-02-03T10:32:39.265Z,24.93
2018-02-03T10:33:44.683Z,25.80
2018-02-03T10:34:49.306Z,25.87
2018-02-03T10:35:54.488Z,26.17
2018-02-03T10:36:58.682Z,21.53
2018-02-03T10:38:03.643Z,31.53
2018-02-03T10:39:07.904Z,27.80
2018-02-03T10:40:13.690Z,22.40
2018-02-03T10:41:18.833Z,21.60
2018-02-03T10:42:23.206Z,23.40
2018-02-03T10:43:27.415Z,24.48
2018-02-03T10:44:32.450Z,21.00
2018-02-03T10:45:37.463Z,21.85
2018-02-03T10:46:41.714Z,23.53
2018-02-03T10:47:46.369Z,22.93
2018-02-03T10:48:51.569Z,22.07
2018-02-03T10:49:55.828Z,23.97
2018-02-03T10:51:00.012Z,26.10
2018-02-03T10:52:04.216Z,26.80
2018-02-03T10:53:08.427Z,33.17
2018-02-03T10:54:13.741Z,28.47
2018-02-03T10:55:18.276Z,17.53
2018-02-03T10:56:22.628Z,21.35
2018-02-03T10:57:26.830Z,30.60
2018-02-03T10:58:31.112Z,20.57
2018-02-03T10:59:35.267Z,22.90
2018-02-03T11:00:45.265Z,18.07
2018-02-03T11:01:49.552Z,20.77
2018-02-03T11:02:54.520Z,22.27
2018-02-03T11:03:58.702Z,22.33
2018-02-03T11:05:02.888Z,21.05
2018-02-03T11:06:10.062Z,23.60
2018-02-03T11:07:14.331Z,17.20
2018-02-03T11:08:18.576Z,21.97
2018-02-03T11:09:22.873Z,28.87
2018-02-03T11:10:27.076Z,27.40
2018-02-03T11:11:31.327Z,28.13
2018-02-03T11:12:35.532Z,24.13
2018-02-03T11:13:39.707Z,27.03
2018-02-03T11:14:43.928Z,27.60
2018-02-03T11:15:48.139Z,30.87
2018-02-03T11:16:52.402Z,26.20
2018-02-03T11:17:56.627Z,25.77
2018-02-03T11:19:00.821Z,27.37
2018-02-03T11:20:05.774Z,24.73
2018-02-03T11:21:10.005Z,29.47
2018-02-03T11:22:14.279Z,20.90
2018-02-03T11:23:19.323Z,26.00
2018-02-03T11:24:23.506Z,32.75
2018-02-03T11:25:27.748Z,23.50
2018-02-03T11:26:31.974Z,24.97
2018-02-03T11:27:36.157Z,20.30
2018-02-03T11:28:40.370Z,32.00
2018-02-03T11:29:44.650Z,23.37
2018-02-03T11:30:49.635Z,24.13
2018-02-03T11:31:53.919Z,20.37
2018-02-03T11:32:58.090Z,20.73
2018-02-03T11:34:02.282Z,17.93
2018-02-03T11:35:06.454Z,15.47
2018-02-03T11:36:10.661Z,21.70
2018-02-03T11:37:14.939Z,20.70
2018-02-03T11:38:19.168Z,29.40
2018-02-03T11:39:24.135Z,19.73
2018-02-03T11:40:28.358Z,20.40
2018-02-03T11:41:32.569Z,22.60
2018-02-03T11:42:36.792Z,19.77
2018-02-03T11:43:40.998Z,30.13
2018-02-03T11:44:45.443Z,21.80
2018-02-03T11:45:49.887Z,24.37
2018-02-03T11:46:54.145Z,18.53
2018-02-03T11:47:58.387Z,23.10
2018-02-03T11:49:03.339Z,33.63
2018-02-03T11:50:07.546Z,24.13
2018-02-03T11:51:11.786Z,26.40
2018-02-03T11:52:16.276Z,18.63
2018-02-03T11:53:20.503Z,20.50
2018-02-03T11:54:24.670Z,19.70
2018-02-03T11:55:29.612Z,25.23
2018-02-03T11:56:34.565Z,29.87
2018-02-03T11:57:38.736Z,22.60
2018-02-03T11:58:43.802Z,25.90
2018-02-03T11:59:48.152Z,25.43
2018-02-03T12:00:52.418Z,26.40
2018-02-03T12:01:56.619Z,22.60
2018-02-03T12:03:01.567Z,33.53
2018-02-03T12:04:05.820Z,32.57
2018-02-03T12:05:10.044Z,22.63
2018-02-03T12:06:14.341Z,22.80
2018-02-03T12:07:19.042Z,23.97
2018-02-03T12:08:23.638Z,22.43
2018-02-03T12:09:27.901Z,24.60
2018-02-03T12:10:33.078Z,21.90
2018-02-03T12:11:37.259Z,22.20
2018-02-03T12:12:41.576Z,27.87
2018-02-03T12:13:46.427Z,28.77
2018-02-03T12:14:50.739Z,22.07
2018-02-03T12:15:54.919Z,22.93
2018-02-03T12:16:59.899Z,20.67
2018-02-03T12:18:04.087Z,28.70
2018-02-03T12:19:08.359Z,20.67
2018-02-03T12:20:13.405Z,25.03
2018-02-03T12:21:17.945Z,24.73
2018-02-03T12:22:22.263Z,23.50
2018-02-03T12:23:27.203Z,19.50
2018-02-03T12:24:31.462Z,17.87
2018-02-03T12:25:35.722Z,21.80
2018-02-03T12:26:39.950Z,19.20
2018-02-03T12:27:45.633Z,22.70
2018-02-03T12:28:50.884Z,24.00
2018-02-03T12:29:55.139Z,19.57
2018-02-03T12:30:59.399Z,20.63
2018-02-03T12:32:04.374Z,17.90
2018-02-03T12:33:08.552Z,18.90
2018-02-03T12:34:14.113Z,20.33
2018-02-03T12:35:19.210Z,32.27
2018-02-03T12:36:24.953Z,20.70
2018-02-03T12:37:29.936Z,22.97
2018-02-03T12:38:34.145Z,19.50
2018-02-03T12:39:38.312Z,25.70
2018-02-03T12:40:43.345Z,26.60
2018-02-03T12:41:47.985Z,25.93
2018-02-03T12:42:52.268Z,23.17
2018-02-03T12:43:57.361Z,30.70
2018-02-03T12:45:01.582Z,20.33
2018-02-03T12:46:05.835Z,16.87
2018-02-03T12:47:11.010Z,22.07
2018-02-03T12:48:15.534Z,22.07
2018-02-03T12:49:21.420Z,17.63
2018-02-03T12:50:25.619Z,18.03
2018-02-03T12:51:29.843Z,21.43
2018-02-03T12:52:34.073Z,18.40
2018-02-03T12:53:39.065Z,17.63
2018-02-03T12:54:43.838Z,19.43
2018-02-03T12:55:48.162Z,36.57
2018-02-03T12:56:52.801Z,33.00
2018-02-03T12:57:57.024Z,28.27
2018-02-03T12:59:01.225Z,23.67
2018-02-03T13:00:05.464Z,42.13
2018-02-03T13:01:09.689Z,21.30
2018-02-03T13:02:14.094Z,19.33
2018-02-03T13:03:18.386Z,21.43
2018-02-03T13:04:24.100Z,21.00
2018-02-03T13:05:28.319Z,16.60
2018-02-03T13:06:32.495Z,23.23
2018-02-03T13:07:37.963Z,23.97
2018-02-03T13:08:42.262Z,19.60
2018-02-03T13:09:46.631Z,24.60
2018-02-03T13:10:52.384Z,19.97
2018-02-03T13:11:56.833Z,24.13
2018-02-03T13:13:02.652Z,18.47
2018-02-03T13:14:06.875Z,20.10
2018-02-03T13:15:11.893Z,25.40
2018-02-03T13:16:17.157Z,19.27
2018-02-03T13:17:21.399Z,18.97
2018-02-03T13:18:25.649Z,30.07
2018-02-03T13:19:29.847Z,29.80
2018-02-03T13:20:34.052Z,25.60
2018-02-03T13:21:38.255Z,23.97
2018-02-03T13:22:42.714Z,18.20
2018-02-03T13:23:47.157Z,22.23
2018-02-03T13:24:51.664Z,21.80
2018-02-03T13:25:55.873Z,22.40
2018-02-03T13:27:00.824Z,19.73
2018-02-03T13:28:05.025Z,22.30
2018-02-03T13:29:09.533Z,28.07
2018-02-03T13:30:14.629Z,22.27
2018-02-03T13:31:19.775Z,23.47
2018-02-03T13:32:24.850Z,20.60
2018-02-03T13:33:29.049Z,22.43
2018-02-03T13:34:33.296Z,17.50
2018-02-03T13:35:37.579Z,21.70
2018-02-03T13:36:41.796Z,19.33
2018-02-03T13:37:46.591Z,16.03
2018-02-03T13:38:51.998Z,21.80
2018-02-03T13:39:56.242Z,22.90
2018-02-03T13:41:01.179Z,23.13
2018-02-03T13:42:05.352Z,28.40
2018-02-03T13:43:09.560Z,25.33
2018-02-03T13:44:14.928Z,24.07
2018-02-03T13:45:19.251Z,24.37
2018-02-03T13:46:23.534Z,19.43
2018-02-03T13:47:28.572Z,18.10
2018-02-03T13:48:33.516Z,26.07
2018-02-03T13:49:38.483Z,25.13
2018-02-03T13:50:43.076Z,20.37
2018-02-03T13:51:47.400Z,22.43
2018-02-03T13:52:51.723Z,28.03